createdAt,value
2022-11-26T00:01:44.304Z,6.40
2022-11-26T00:06:44.913Z,6.40
2022-11-26T00:11:43.994Z,6.40
2022-11-26T00:16:46.012Z,6.45
2022-11-26T00:21:44.906Z,6.42
2022-11-26T00:26:43.706Z,6.27
2022-11-26T00:31:42.531Z,6.31
2022-11-26T00:36:45.440Z,6.12
2022-11-26T00:41:47.416Z,6.11
2022-11-26T00:46:46.368Z,6.16
2022-11-26T00:51:47.702Z,6.19
2022-11-26T00:56:47.092Z,6.28
2022-11-26T01:01:45.976Z,6.31
2022-11-26T01:06:47.278Z,6.23
2022-11-26T01:11:50.872Z,6.19
2022-11-26T01:16:53.806Z,6.18
2022-11-26T01:21:54.093Z,6.21
2022-11-26T01:26:53.014Z,6.19
2022-11-26T01:31:51.885Z,6.10
2022-11-26T01:36:50.716Z,6.06
2022-11-26T01:42:00.176Z,6.06
2022-11-26T01:47:00.197Z,6.06
2022-11-26T01:52:06.397Z,6.11
2022-11-26T01:57:11.919Z,6.15
2022-11-26T02:02:11.516Z,6.12
2022-11-26T02:07:10.349Z,6.05
2022-11-26T02:12:10.729Z,5.99
2022-11-26T02:17:16.718Z,6.05
2022-11-26T02:22:30.653Z,6.11
2022-11-26T02:28:02.087Z,6.12
2022-11-26T02:33:06.829Z,6.06
2022-11-26T02:38:10.931Z,6.17
2022-11-26T02:43:09.908Z,6.16
2022-11-26T02:48:15.813Z,6.07
2022-11-26T02:53:16.949Z,6.14
2022-11-26T02:58:16.017Z,6.22
2022-11-26T03:03:24.005Z,6.27
2022-11-26T03:08:23.708Z,6.29
2022-11-26T03:13:22.559Z,6.29
2022-11-26T03:18:22.763Z,6.35
2022-11-26T03:23:21.568Z,6.38
2022-11-26T03:28:20.359Z,6.41
2022-11-26T03:33:19.260Z,6.33
2022-11-26T03:38:19.503Z,6.40
2022-11-26T03:43:18.256Z,6.35
2022-11-26T03:48:17.077Z,6.27
2022-11-26T03:53:15.791Z,6.14
2022-11-26T03:58:15.889Z,5.85
2022-11-26T04:03:14.718Z,5.95
2022-11-26T04:08:13.751Z,5.82
2022-11-26T04:13:15.114Z,5.85
2022-11-26T04:18:15.289Z,5.99
2022-11-26T04:23:14.100Z,6.03
2022-11-26T04:28:13.482Z,5.94
2022-11-26T04:33:12.564Z,6.01
2022-11-26T04:38:12.810Z,6.05
2022-11-26T04:43:11.676Z,6.10
2022-11-26T04:48:10.549Z,5.77
2022-11-26T04:53:09.285Z,5.82
2022-11-26T04:58:09.456Z,5.86
2022-11-26T05:03:08.447Z,5.65
2022-11-26T05:08:07.915Z,5.46
2022-11-26T05:13:06.719Z,5.05
2022-11-26T05:18:07.060Z,4.98
2022-11-26T05:23:05.950Z,5.15
2022-11-26T05:28:05.041Z,5.13
2022-11-26T05:33:03.892Z,4.75
2022-11-26T05:38:04.181Z,5.07
2022-11-26T05:43:02.971Z,5.19
2022-11-26T05:48:01.776Z,5.28
2022-11-26T05:53:00.800Z,5.15
2022-11-26T05:58:00.984Z,4.83
2022-11-26T06:02:59.820Z,4.56
2022-11-26T06:08:04.233Z,4.72
2022-11-26T06:13:06.845Z,4.50
2022-11-26T06:18:05.773Z,4.55
2022-11-26T06:23:05.417Z,4.81
2022-11-26T06:28:05.798Z,4.86
2022-11-26T06:33:06.254Z,5.10
2022-11-26T06:38:06.686Z,4.87
2022-11-26T06:43:08.587Z,5.02
2022-11-26T06:48:07.645Z,5.01
2022-11-26T06:53:08.463Z,5.11
2022-11-26T06:58:12.053Z,5.17
2022-11-26T07:03:14.311Z,5.23
2022-11-26T07:08:14.131Z,5.20
2022-11-26T07:13:14.360Z,5.11
2022-11-26T07:18:15.758Z,5.16
2022-11-26T07:23:16.393Z,5.15
2022-11-26T07:28:16.766Z,5.16
2022-11-26T07:33:15.741Z,5.27
2022-11-26T07:38:14.514Z,5.43
2022-11-26T07:43:13.371Z,5.53
2022-11-26T07:48:16.914Z,5.35
2022-11-26T07:53:16.061Z,5.19
2022-11-26T07:58:18.719Z,5.28
2022-11-26T08:03:19.204Z,5.32
2022-11-26T08:08:18.084Z,5.44
2022-11-26T08:13:16.967Z,5.38
2022-11-26T08:18:16.002Z,4.85
2022-11-26T08:23:16.360Z,4.81
2022-11-26T08:28:15.359Z,4.39
2022-11-26T08:33:14.597Z,4.48
2022-11-26T08:38:13.456Z,4.88
2022-11-26T08:43:13.790Z,5.15
2022-11-26T08:48:13.602Z,5.29
2022-11-26T08:53:12.488Z,5.44
2022-11-26T08:58:13.482Z,5.52
2022-11-26T09:03:13.772Z,5.73
2022-11-26T09:08:12.706Z,5.77
2022-11-26T09:13:11.518Z,5.79
2022-11-26T09:18:10.292Z,5.98
2022-11-26T09:23:10.925Z,5.98
2022-11-26T09:28:09.998Z,6.09
2022-11-26T09:33:09.169Z,6.27
2022-11-26T09:38:08.104Z,6.47
2022-11-26T09:43:23.428Z,6.26
2022-11-26T09:48:27.510Z,6.30
2022-11-26T09:53:31.536Z,6.44
2022-11-26T09:58:40.645Z,6.14
2022-11-26T10:03:42.456Z,5.86
2022-11-26T10:09:16.120Z,6.13
2022-11-26T10:14:32.939Z,6.32
2022-11-26T10:19:46.455Z,6.31
2022-11-26T10:24:45.708Z,6.33
2022-11-26T10:29:51.037Z,6.59
2022-11-26T10:34:52.338Z,6.92
2022-11-26T10:40:02.035Z,7.15
2022-11-26T10:45:22.897Z,7.21
2022-11-26T10:55:45.274Z,7.02
2022-11-26T11:00:55.248Z,7.25
2022-11-26T11:06:12.722Z,7.35
2022-11-26T11:11:21.463Z,7.41
2022-11-26T11:16:27.682Z,7.25
2022-11-26T11:21:31.346Z,7.47
2022-11-26T11:26:41.334Z,7.72
2022-11-26T11:31:47.946Z,7.91
2022-11-26T11:37:00.146Z,7.87
2022-11-26T11:42:00.391Z,7.87
2022-11-26T11:47:20.697Z,7.78
2022-11-26T11:52:35.563Z,8.12
2022-11-26T11:57:50.407Z,8.27
2022-11-26T12:03:28.214Z,8.30
2022-11-26T12:08:40.978Z,8.07
2022-11-26T12:13:50.139Z,8.38
2022-11-26T12:18:55.282Z,8.79
2022-11-26T12:23:59.821Z,9.11
2022-11-26T12:29:03.345Z,10.05
2022-11-26T12:34:09.420Z,11.01
2022-11-26T12:39:19.176Z,11.09
2022-11-26T12:44:25.123Z,11.52
2022-11-26T12:49:31.823Z,11.45
2022-11-26T12:54:34.884Z,11.90
2022-11-26T12:59:39.809Z,11.93
2022-11-26T13:04:40.003Z,12.21
2022-11-26T13:09:55.436Z,12.64
2022-11-26T13:14:58.050Z,12.11
2022-11-26T13:20:08.714Z,12.05
2022-11-26T13:25:40.608Z,12.06
2022-11-26T13:30:50.991Z,11.52
2022-11-26T13:36:21.346Z,10.97
2022-11-26T13:41:31.296Z,10.76
2022-11-26T13:46:32.376Z,10.47
2022-11-26T13:51:39.660Z,10.40
2022-11-26T13:56:41.355Z,10.20
2022-11-26T14:01:41.393Z,9.98
2022-11-26T14:07:16.213Z,9.91
2022-11-26T14:12:18.763Z,9.55
2022-11-26T14:17:32.503Z,9.34
2022-11-26T14:22:36.334Z,9.12
2022-11-26T14:27:40.721Z,8.90
2022-11-26T14:32:42.248Z,8.90
2022-11-26T14:37:52.427Z,8.75
2022-11-26T14:43:08.215Z,8.42
2022-11-26T14:48:16.586Z,8.33
2022-11-26T14:53:15.838Z,8.25
2022-11-26T14:58:20.501Z,8.14
2022-11-26T15:03:26.021Z,8.10
2022-11-26T15:08:27.173Z,8.11
2022-11-26T15:13:32.918Z,8.05
2022-11-26T15:18:34.330Z,7.94
2022-11-26T15:23:37.585Z,7.76
2022-11-26T15:28:41.201Z,7.60
2022-11-26T15:33:40.331Z,7.62
2022-11-26T15:39:01.273Z,7.38
2022-11-26T15:44:01.975Z,7.28
2022-11-26T15:49:03.877Z,7.28
2022-11-26T15:54:03.532Z,7.12
2022-11-26T15:59:15.117Z,6.99
2022-11-26T16:04:46.331Z,6.63
2022-11-26T16:09:46.423Z,6.49
2022-11-26T16:14:46.605Z,6.63
2022-11-26T16:19:50.319Z,6.30
2022-11-26T16:25:02.693Z,6.30
2022-11-26T16:30:16.390Z,6.15
2022-11-26T16:35:44.133Z,6.13
2022-11-26T16:40:37.000Z,6.09
2022-11-26T16:45:37.553Z,6.09
2022-11-26T16:50:36.279Z,6.15
2022-11-26T16:55:35.088Z,6.28
2022-11-26T17:00:34.827Z,6.10
2022-11-26T17:05:37.171Z,6.04
2022-11-26T17:10:35.977Z,6.24
2022-11-26T17:15:34.965Z,6.42
2022-11-26T17:20:35.224Z,6.58
2022-11-26T17:25:34.286Z,6.69
2022-11-26T17:30:35.251Z,6.58
2022-11-26T17:35:35.858Z,6.34
2022-11-26T17:40:34.655Z,6.40
2022-11-26T17:45:33.473Z,6.37
2022-11-26T17:50:34.006Z,6.20
2022-11-26T17:55:35.638Z,6.30
2022-11-26T18:00:34.448Z,6.38
2022-11-26T18:05:35.785Z,6.26
2022-11-26T18:10:41.146Z,6.26
2022-11-26T18:15:40.007Z,6.34
2022-11-26T18:20:38.873Z,6.46
2022-11-26T18:25:39.163Z,6.51
2022-11-26T18:30:38.432Z,6.46
2022-11-26T18:35:48.308Z,6.30
2022-11-26T18:40:59.332Z,6.33
2022-11-26T18:46:00.451Z,6.19
2022-11-26T18:51:00.154Z,6.20
2022-11-26T18:56:00.394Z,6.23
2022-11-26T19:00:59.399Z,6.33
2022-11-26T19:06:05.453Z,6.35
2022-11-26T19:11:10.618Z,6.19
2022-11-26T19:16:15.819Z,6.10
2022-11-26T19:21:19.840Z,5.80
2022-11-26T19:26:20.467Z,5.73
2022-11-26T19:31:21.454Z,5.68
2022-11-26T19:36:20.827Z,5.64
2022-11-26T19:41:25.395Z,5.21
2022-11-26T19:46:26.605Z,5.26
2022-11-26T19:51:27.890Z,5.26
2022-11-26T19:56:30.570Z,5.22
2022-11-26T20:01:32.002Z,5.17
2022-11-26T20:06:35.383Z,5.21
2022-11-26T20:17:28.694Z,5.31
2022-11-26T20:22:33.965Z,5.22
2022-11-26T20:27:34.433Z,5.07
2022-11-26T20:32:33.213Z,5.24
2022-11-26T20:37:34.803Z,5.24
2022-11-26T20:42:35.405Z,5.09
2022-11-26T20:47:34.507Z,5.08
2022-11-26T20:52:33.750Z,5.21
2022-11-26T20:57:33.730Z,5.41
2022-11-26T21:02:34.405Z,5.56
2022-11-26T21:07:33.356Z,5.55
2022-11-26T21:12:32.223Z,5.58
2022-11-26T21:17:31.129Z,5.68
2022-11-26T21:22:31.585Z,5.58
2022-11-26T21:27:32.117Z,5.47
2022-11-26T21:32:31.068Z,5.56
2022-11-26T21:37:31.225Z,5.69
2022-11-26T21:42:31.063Z,5.69
2022-11-26T21:47:31.566Z,5.77
2022-11-26T21:52:31.838Z,5.79
2022-11-26T21:57:32.221Z,5.80
2022-11-26T22:02:42.447Z,5.75
2022-11-26T22:07:45.646Z,5.24
2022-11-26T22:12:49.432Z,5.08
2022-11-26T22:17:48.299Z,5.11
2022-11-26T22:22:48.554Z,5.16
2022-11-26T22:27:47.444Z,5.21
2022-11-26T22:32:46.392Z,5.29
2022-11-26T22:37:45.154Z,5.23
2022-11-26T22:42:45.333Z,5.18
2022-11-26T22:47:48.528Z,5.20
2022-11-26T22:52:52.322Z,5.03
2022-11-26T22:57:53.477Z,5.00
2022-11-26T23:02:52.576Z,4.89
2022-11-26T23:07:51.503Z,4.91
2022-11-26T23:12:50.379Z,4.89
2022-11-26T23:17:51.133Z,4.84
2022-11-26T23:22:50.110Z,4.66
2022-11-26T23:27:49.235Z,4.45
2022-11-26T23:32:48.233Z,4.28
2022-11-26T23:37:48.612Z,4.22
2022-11-26T23:42:47.517Z,4.13
2022-11-26T23:47:46.359Z,4.11
2022-11-26T23:52:45.147Z,3.90
2022-11-26T23:57:45.537Z,3.61
